sensor_id;sensor_type;location;lat;lon;timestamp;pressure;altitude;pressure_sealevel;temperature;humidity
18569;BME280;14780;48.316;-1.050;2023-03-22T00:02:19;98567.38;;;24.27;35.99
18569;BME280;14780;48.316;-1.050;2023-03-22T00:05:04;98567.09;;;24.28;36.08
18569;BME280;14780;48.316;-1.050;2023-03-22T00:07:48;98567.09;;;24.28;35.90
18569;BME280;14780;48.316;-1.050;2023-03-22T00:10:36;98555.34;;;24.28;36.02
18569;BME280;14780;48.316;-1.050;2023-03-22T00:13:21;98568.16;;;24.27;36.07
18569;BME280;14780;48.316;-1.050;2023-03-22T00:16:06;98548.25;;;24.27;35.92
18569;BME280;14780;48.316;-1.050;2023-03-22T00:18:51;98541.94;;;24.26;36.04
18569;BME280;14780;48.316;-1.050;2023-03-22T00:21:36;98548.50;;;24.25;36.03
18569;BME280;14780;48.316;-1.050;2023-03-22T00:24:21;98546.88;;;24.24;35.93
18569;BME280;14780;48.316;-1.050;2023-03-22T00:27:05;98534.84;;;24.25;35.91
18569;BME280;14780;48.316;-1.050;2023-03-22T00:29:53;98539.53;;;24.25;36.04
18569;BME280;14780;48.316;-1.050;2023-03-22T00:32:38;98534.06;;;24.25;36.00
18569;BME280;14780;48.316;-1.050;2023-03-22T00:35:23;98546.06;;;24.24;35.91
18569;BME280;14780;48.316;-1.050;2023-03-22T00:38:07;98538.69;;;24.24;36.03
18569;BME280;14780;48.316;-1.050;2023-03-22T00:41:04;98515.72;;;24.25;35.90
18569;BME280;14780;48.316;-1.050;2023-03-22T00:43:50;98516.31;;;24.22;35.96
18569;BME280;14780;48.316;-1.050;2023-03-22T00:46:35;98516.00;;;24.24;35.97
18569;BME280;14780;48.316;-1.050;2023-03-22T00:49:20;98515.19;;;24.23;35.93
18569;BME280;14780;48.316;-1.050;2023-03-22T00:52:05;98505.38;;;24.22;35.93
18569;BME280;14780;48.316;-1.050;2023-03-22T00:54:50;98511.94;;;24.21;35.96
18569;BME280;14780;48.316;-1.050;2023-03-22T00:57:34;98501.00;;;24.21;35.89
18569;BME280;14780;48.316;-1.050;2023-03-22T01:00:19;98493.91;;;24.20;35.87
18569;BME280;14780;48.316;-1.050;2023-03-22T01:03:04;98488.44;;;24.20;36.01
18569;BME280;14780;48.316;-1.050;2023-03-22T01:05:51;98479.69;;;24.18;35.95
18569;BME280;14780;48.316;-1.050;2023-03-22T01:08:38;98470.16;;;24.16;36.00
18569;BME280;14780;48.316;-1.050;2023-03-22T01:11:24;98480.53;;;24.19;35.99
18569;BME280;14780;48.316;-1.050;2023-03-22T01:14:09;98475.63;;;24.16;35.99
18569;BME280;14780;48.316;-1.050;2023-03-22T01:16:54;98468.25;;;24.16;35.88
18569;BME280;14780;48.316;-1.050;2023-03-22T01:19:40;98470.97;;;24.16;35.95
18569;BME280;14780;48.316;-1.050;2023-03-22T01:22:25;98463.28;;;24.18;35.97
18569;BME280;14780;48.316;-1.050;2023-03-22T01:25:10;98464.41;;;24.17;35.85
18569;BME280;14780;48.316;-1.050;2023-03-22T01:27:55;98456.22;;;24.17;35.89
18569;BME280;14780;48.316;-1.050;2023-03-22T01:30:40;98459.47;;;24.19;35.82
18569;BME280;14780;48.316;-1.050;2023-03-22T01:33:24;98458.94;;;24.17;35.91
18569;BME280;14780;48.316;-1.050;2023-03-22T01:36:09;98449.13;;;24.16;35.91
18569;BME280;14780;48.316;-1.050;2023-03-22T01:38:54;98439.00;;;24.17;35.98
18569;BME280;14780;48.316;-1.050;2023-03-22T01:41:39;98428.06;;;24.17;35.92
18569;BME280;14780;48.316;-1.050;2023-03-22T01:44:27;98420.44;;;24.14;35.88
18569;BME280;14780;48.316;-1.050;2023-03-22T01:47:13;98410.03;;;24.16;35.89
18569;BME280;14780;48.316;-1.050;2023-03-22T01:49:58;98404.03;;;24.14;35.85
18569;BME280;14780;48.316;-1.050;2023-03-22T01:52:43;98413.34;;;24.13;35.89
18569;BME280;14780;48.316;-1.050;2023-03-22T01:55:28;98403.25;;;24.13;35.96
18569;BME280;14780;48.316;-1.050;2023-03-22T01:58:15;98392.31;;;24.13;35.81
18569;BME280;14780;48.316;-1.050;2023-03-22T02:01:02;98389.03;;;24.11;35.96
18569;BME280;14780;48.316;-1.050;2023-03-22T02:03:55;98393.94;;;24.14;35.98
18569;BME280;14780;48.316;-1.050;2023-03-22T02:06:42;98392.00;;;24.15;35.79
18569;BME280;14780;48.316;-1.050;2023-03-22T02:09:28;98376.44;;;24.15;35.91
18569;BME280;14780;48.316;-1.050;2023-03-22T02:15:39;98381.38;;;24.13;35.89
18569;BME280;14780;48.316;-1.050;2023-03-22T02:46:22;98342.81;;;24.15;35.92
18569;BME280;14780;48.316;-1.050;2023-03-22T02:52:38;98335.72;;;24.14;35.92
18569;BME280;14780;48.316;-1.050;2023-03-22T02:58:34;98333.81;;;24.14;36.00
18569;BME280;14780;48.316;-1.050;2023-03-22T03:01:28;98328.34;;;24.14;35.87
18569;BME280;14780;48.316;-1.050;2023-03-22T03:04:24;98342.00;;;24.14;35.94
18569;BME280;14780;48.316;-1.050;2023-03-22T03:07:14;98342.00;;;24.14;35.86
18569;BME280;14780;48.316;-1.050;2023-03-22T03:10:02;98334.31;;;24.16;35.84
18569;BME280;14780;48.316;-1.050;2023-03-22T03:12:47;98320.94;;;24.15;35.93
18569;BME280;14780;48.316;-1.050;2023-03-22T03:15:33;98326.94;;;24.17;35.79
18569;BME280;14780;48.316;-1.050;2023-03-22T03:24:47;98322.78;;;24.19;35.88
18569;BME280;14780;48.316;-1.050;2023-03-22T03:30:55;98322.78;;;24.19;35.86
18569;BME280;14780;48.316;-1.050;2023-03-22T03:36:41;98314.66;;;24.14;35.90
18569;BME280;14780;48.316;-1.050;2023-03-22T03:39:32;98312.44;;;24.16;35.93
18569;BME280;14780;48.316;-1.050;2023-03-22T03:42:18;98318.75;;;24.17;35.78
18569;BME280;14780;48.316;-1.050;2023-03-22T03:45:07;98320.66;;;24.16;35.90
18569;BME280;14780;48.316;-1.050;2023-03-22T03:47:56;98315.69;;;24.18;35.88
18569;BME280;14780;48.316;-1.050;2023-03-22T03:50:42;98314.06;;;24.17;35.74
18569;BME280;14780;48.316;-1.050;2023-03-22T03:53:27;98306.69;;;24.18;35.85
18569;BME280;14780;48.316;-1.050;2023-03-22T03:56:12;98312.44;;;24.16;35.69
18569;BME280;14780;48.316;-1.050;2023-03-22T03:58:57;98307.81;;;24.17;35.74
18569;BME280;14780;48.316;-1.050;2023-03-22T04:01:42;98298.50;;;24.18;35.80
18569;BME280;14780;48.316;-1.050;2023-03-22T04:04:33;98295.22;;;24.16;35.75
18569;BME280;14780;48.316;-1.050;2023-03-22T04:07:18;98302.34;;;24.17;35.72
18569;BME280;14780;48.316;-1.050;2023-03-22T04:10:04;98300.69;;;24.16;35.82
18569;BME280;14780;48.316;-1.050;2023-03-22T04:12:49;98304.53;;;24.15;35.87
18569;BME280;14780;48.316;-1.050;2023-03-22T04:15:34;98306.47;;;24.14;35.70
18569;BME280;14780;48.316;-1.050;2023-03-22T04:18:19;98302.91;;;24.14;35.84
18569;BME280;14780;48.316;-1.050;2023-03-22T04:21:05;98303.75;;;24.14;35.75
18569;BME280;14780;48.316;-1.050;2023-03-22T04:23:49;98305.94;;;24.12;35.73
18569;BME280;14780;48.316;-1.050;2023-03-22T04:26:35;98307.28;;;24.15;35.72
18569;BME280;14780;48.316;-1.050;2023-03-22T04:29:19;98304.53;;;24.15;35.78
18569;BME280;14780;48.316;-1.050;2023-03-22T04:32:05;98303.75;;;24.14;35.92
18569;BME280;14780;48.316;-1.050;2023-03-22T04:34:50;98296.06;;;24.16;35.88
18569;BME280;14780;48.316;-1.050;2023-03-22T04:37:36;98296.88;;;24.17;35.78
18569;BME280;14780;48.316;-1.050;2023-03-22T04:40:20;98299.91;;;24.15;35.69
18569;BME280;14780;48.316;-1.050;2023-03-22T04:43:05;98297.16;;;24.15;35.83
18569;BME280;14780;48.316;-1.050;2023-03-22T04:45:50;98290.59;;;24.16;35.76
18569;BME280;14780;48.316;-1.050;2023-03-22T04:48:38;98303.75;;;24.14;35.77
18569;BME280;14780;48.316;-1.050;2023-03-22T04:51:23;98303.75;;;24.14;35.78
18569;BME280;14780;48.316;-1.050;2023-03-22T04:54:09;98300.41;;;24.17;35.75
18569;BME280;14780;48.316;-1.050;2023-03-22T04:56:54;98296.06;;;24.16;35.72
18569;BME280;14780;48.316;-1.050;2023-03-22T04:59:39;98293.59;;;24.15;35.75
18569;BME280;14780;48.316;-1.050;2023-03-22T05:02:23;98296.34;;;24.15;35.72
18569;BME280;14780;48.316;-1.050;2023-03-22T05:05:09;98291.97;;;24.14;35.83
18569;BME280;14780;48.316;-1.050;2023-03-22T05:07:53;98292.50;;;24.16;35.90
18569;BME280;14780;48.316;-1.050;2023-03-22T05:10:40;98300.19;;;24.14;35.90
18569;BME280;14780;48.316;-1.050;2023-03-22T05:13:26;98298.28;;;24.14;35.87
18569;BME280;14780;48.316;-1.050;2023-03-22T05:16:11;98298.28;;;24.14;35.77
18569;BME280;14780;48.316;-1.050;2023-03-22T05:18:56;98296.06;;;24.16;35.82
18569;BME280;14780;48.316;-1.050;2023-03-22T05:21:42;98298.28;;;24.14;35.76
18569;BME280;14780;48.316;-1.050;2023-03-22T05:24:31;98301.81;;;24.15;35.85
18569;BME280;14780;48.316;-1.050;2023-03-22T05:27:15;98296.66;;;24.13;35.73
18569;BME280;14780;48.316;-1.050;2023-03-22T05:30:01;98284.38;;;24.11;35.76
18569;BME280;14780;48.316;-1.050;2023-03-22T05:32:45;98275.34;;;24.10;35.78
18569;BME280;14780;48.316;-1.050;2023-03-22T05:35:31;98278.59;;;24.12;35.76
18569;BME280;14780;48.316;-1.050;2023-03-22T05:38:17;98272.34;;;24.12;35.84
18569;BME280;14780;48.316;-1.050;2023-03-22T05:41:01;98266.03;;;24.11;35.88
18569;BME280;14780;48.316;-1.050;2023-03-22T05:43:46;98262.19;;;24.12;35.71
18569;BME280;14780;48.316;-1.050;2023-03-22T05:46:32;98263.84;;;24.13;35.75
18569;BME280;14780;48.316;-1.050;2023-03-22T05:49:17;98264.94;;;24.12;35.81
18569;BME280;14780;48.316;-1.050;2023-03-22T05:52:01;98261.41;;;24.12;35.70
18569;BME280;14780;48.316;-1.050;2023-03-22T05:54:49;98259.47;;;24.12;35.87
18569;BME280;14780;48.316;-1.050;2023-03-22T05:57:34;98258.38;;;24.13;35.80
18569;BME280;14780;48.316;-1.050;2023-03-22T06:00:20;98263.84;;;24.13;35.80
18569;BME280;14780;48.316;-1.050;2023-03-22T06:03:05;98250.19;;;24.13;35.87
18569;BME280;14780;48.316;-1.050;2023-03-22T06:05:50;98251.28;;;24.12;35.77
18569;BME280;14780;48.316;-1.050;2023-03-22T06:08:38;98249.97;;;24.10;35.92
18569;BME280;14780;48.316;-1.050;2023-03-22T06:11:23;98249.06;;;24.14;35.79
18569;BME280;14780;48.316;-1.050;2023-03-22T06:14:08;98258.38;;;24.13;36.00
18569;BME280;14780;48.316;-1.050;2023-03-22T06:16:53;98253.44;;;24.15;35.80
18569;BME280;14780;48.316;-1.050;2023-03-22T06:19:38;98245.22;;;24.15;35.91
18569;BME280;14780;48.316;-1.050;2023-03-22T06:22:22;98254.53;;;24.14;35.95
18569;BME280;14780;48.316;-1.050;2023-03-22T06:25:08;98252.59;;;24.15;35.77
18569;BME280;14780;48.316;-1.050;2023-03-22T06:27:53;98246.03;;;24.16;35.88
18569;BME280;14780;48.316;-1.050;2023-03-22T06:30:38;98250.41;;;24.17;35.77
18569;BME280;14780;48.316;-1.050;2023-03-22T06:33:24;98255.06;;;24.16;35.85
18569;BME280;14780;48.316;-1.050;2023-03-22T06:36:09;98248.75;;;24.16;35.83
18569;BME280;14780;48.316;-1.050;2023-03-22T06:38:53;98260.00;;;24.14;35.76
18569;BME280;14780;48.316;-1.050;2023-03-22T06:41:38;98268.22;;;24.14;35.86
18569;BME280;14780;48.316;-1.050;2023-03-22T06:44:22;98275.81;;;24.17;35.86
18569;BME280;14780;48.316;-1.050;2023-03-22T06:47:08;98278.03;;;24.15;35.89
18569;BME280;14780;48.316;-1.050;2023-03-22T06:49:53;98289.75;;;24.16;35.78
18569;BME280;14780;48.316;-1.050;2023-03-22T06:52:38;98284.59;;;24.14;35.76
18569;BME280;14780;48.316;-1.050;2023-03-22T06:55:23;98295.22;;;24.16;35.84
18569;BME280;14780;48.316;-1.050;2023-03-22T06:58:08;98309.44;;;24.18;35.92
18569;BME280;14780;48.316;-1.050;2023-03-22T07:00:55;98310.22;;;24.18;35.80
18569;BME280;14780;48.316;-1.050;2023-03-22T07:03:40;98296.88;;;24.17;35.84
18569;BME280;14780;48.316;-1.050;2023-03-22T07:06:25;98288.09;;;24.20;35.91
18569;BME280;14780;48.316;-1.050;2023-03-22T07:09:09;98243.25;;;24.21;36.01
18569;BME280;14780;48.316;-1.050;2023-03-22T07:11:54;98273.81;;;24.23;36.03
18569;BME280;14780;48.316;-1.050;2023-03-22T07:14:38;98288.81;;;24.25;36.29
18569;BME280;14780;48.316;-1.050;2023-03-22T07:17:23;98281.13;;;24.27;36.41
18569;BME280;14780;48.316;-1.050;2023-03-22T07:20:08;98272.38;;;24.30;36.36
18569;BME280;14780;48.316;-1.050;2023-03-22T07:22:54;98279.72;;;24.30;36.56
18569;BME280;14780;48.316;-1.050;2023-03-22T07:25:38;98276.19;;;24.29;36.47
18569;BME280;14780;48.316;-1.050;2023-03-22T07:28:23;98283.34;;;24.25;36.63
18569;BME280;14780;48.316;-1.050;2023-03-22T07:31:09;98269.69;;;24.25;36.58
18569;BME280;14780;48.316;-1.050;2023-03-22T07:33:54;98270.50;;;24.26;36.57
18569;BME280;14780;48.316;-1.050;2023-03-22T07:36:39;98271.91;;;24.23;36.46
18569;BME280;14780;48.316;-1.050;2023-03-22T07:39:24;98282.00;;;24.23;36.59
18569;BME280;14780;48.316;-1.050;2023-03-22T07:42:09;98292.16;;;24.22;36.52
18569;BME280;14780;48.316;-1.050;2023-03-22T07:44:53;98276.03;;;24.21;36.54
18569;BME280;14780;48.316;-1.050;2023-03-22T07:47:38;98277.97;;;24.20;36.45
18569;BME280;14780;48.316;-1.050;2023-03-22T07:50:22;98257.19;;;24.19;36.50
18569;BME280;14780;48.316;-1.050;2023-03-22T07:53:07;98263.72;;;24.23;36.49
18569;BME280;14780;48.316;-1.050;2023-03-22T07:55:52;98263.94;;;24.27;36.75
18569;BME280;14780;48.316;-1.050;2023-03-22T07:58:36;98267.41;;;24.32;36.78
18569;BME280;14780;48.316;-1.050;2023-03-22T08:01:21;98269.56;;;24.35;37.02
18569;BME280;14780;48.316;-1.050;2023-03-22T08:04:08;98273.31;;;24.39;36.87
18569;BME280;14780;48.316;-1.050;2023-03-22T08:06:53;98270.88;;;24.38;36.74
18569;BME280;14780;48.316;-1.050;2023-03-22T08:09:43;98266.50;;;24.37;36.63
18569;BME280;14780;48.316;-1.050;2023-03-22T08:12:29;98265.78;;;24.31;36.74
18569;BME280;14780;48.316;-1.050;2023-03-22T08:15:16;98254.34;;;24.29;36.70
18569;BME280;14780;48.316;-1.050;2023-03-22T08:18:00;98262.31;;;24.26;36.70
18569;BME280;14780;48.316;-1.050;2023-03-22T08:20:45;98254.41;;;24.24;36.62
18569;BME280;14780;48.316;-1.050;2023-03-22T08:23:30;98260.47;;;24.21;36.64
18569;BME280;14780;48.316;-1.050;2023-03-22T08:26:15;98247.91;;;24.20;36.64
18569;BME280;14780;48.316;-1.050;2023-03-22T08:29:01;98242.44;;;24.20;36.80
18569;BME280;14780;48.316;-1.050;2023-03-22T08:31:45;98252.84;;;24.18;36.68
18569;BME280;14780;48.316;-1.050;2023-03-22T08:34:31;98253.94;;;24.17;36.73
18569;BME280;14780;48.316;-1.050;2023-03-22T08:37:16;98239.78;;;24.15;36.74
18569;BME280;14780;48.316;-1.050;2023-03-22T08:40:03;98247.13;;;24.15;36.87
18569;BME280;14780;48.316;-1.050;2023-03-22T08:42:52;98228.63;;;24.12;36.83
18569;BME280;14780;48.316;-1.050;2023-03-22T08:45:37;98246.13;;;24.11;36.68
18569;BME280;14780;48.316;-1.050;2023-03-22T08:48:22;98251.88;;;24.09;36.75
18569;BME280;14780;48.316;-1.050;2023-03-22T08:51:07;98237.69;;;24.07;36.87
18569;BME280;14780;48.316;-1.050;2023-03-22T08:53:52;98230.59;;;24.06;36.76
18569;BME280;14780;48.316;-1.050;2023-03-22T08:56:37;98239.88;;;24.05;36.85
18569;BME280;14780;48.316;-1.050;2023-03-22T08:59:21;98233.63;;;24.05;36.74
18569;BME280;14780;48.316;-1.050;2023-03-22T09:02:06;98232.81;;;24.04;36.83
18569;BME280;14780;48.316;-1.050;2023-03-22T09:04:50;98230.66;;;24.01;36.73
18569;BME280;14780;48.316;-1.050;2023-03-22T09:07:35;98237.25;;;24.00;36.74
18569;BME280;14780;48.316;-1.050;2023-03-22T09:10:20;98235.63;;;23.99;36.75
18569;BME280;14780;48.316;-1.050;2023-03-22T09:13:05;98231.78;;;24.00;36.79
18569;BME280;14780;48.316;-1.050;2023-03-22T09:15:50;98246.84;;;23.98;36.74
18569;BME280;14780;48.316;-1.050;2023-03-22T09:18:36;98228.81;;;23.97;36.72
18569;BME280;14780;48.316;-1.050;2023-03-22T09:21:21;98242.47;;;23.97;36.69
18569;BME280;14780;48.316;-1.050;2023-03-22T09:24:06;98240.84;;;23.96;36.77
18569;BME280;14780;48.316;-1.050;2023-03-22T09:26:52;98240.03;;;23.95;36.83
18569;BME280;14780;48.316;-1.050;2023-03-22T09:29:37;98245.50;;;23.95;36.87
18569;BME280;14780;48.316;-1.050;2023-03-22T09:32:22;98246.88;;;23.93;36.71
18569;BME280;14780;48.316;-1.050;2023-03-22T09:35:07;98231.59;;;23.92;36.79
18569;BME280;14780;48.316;-1.050;2023-03-22T09:37:52;98237.34;;;23.90;36.69
18569;BME280;14780;48.316;-1.050;2023-03-22T09:40:52;98240.63;;;23.92;36.70
18569;BME280;14780;48.316;-1.050;2023-03-22T09:43:56;98239.81;;;23.92;36.77
18569;BME280;14780;48.316;-1.050;2023-03-22T09:46:45;98243.41;;;23.87;36.81
18569;BME280;14780;48.316;-1.050;2023-03-22T09:49:39;98229.75;;;23.87;36.74
18569;BME280;14780;48.316;-1.050;2023-03-22T09:52:26;98239.06;;;23.86;36.81
18569;BME280;14780;48.316;-1.050;2023-03-22T09:55:38;98235.72;;;23.89;36.75
18569;BME280;14780;48.316;-1.050;2023-03-22T10:10:32;98229.53;;;23.79;36.69
18569;BME280;14780;48.316;-1.050;2023-03-22T10:16:24;98235.84;;;23.79;36.78
18569;BME280;14780;48.316;-1.050;2023-03-22T10:19:28;98230.38;;;23.79;36.81
18569;BME280;14780;48.316;-1.050;2023-03-22T10:22:16;98229.84;;;23.77;36.76
18569;BME280;14780;48.316;-1.050;2023-03-22T10:25:03;98230.94;;;23.76;36.65
18569;BME280;14780;48.316;-1.050;2023-03-22T10:27:49;98224.97;;;23.74;36.68
18569;BME280;14780;48.316;-1.050;2023-03-22T10:30:37;98221.44;;;23.74;36.73
18569;BME280;14780;48.316;-1.050;2023-03-22T10:36:50;98215.75;;;23.70;36.71
18569;BME280;14780;48.316;-1.050;2023-03-22T10:39:41;98216.03;;;23.69;36.61
18569;BME280;14780;48.316;-1.050;2023-03-22T10:42:29;98215.50;;;23.67;36.60
18569;BME280;14780;48.316;-1.050;2023-03-22T10:45:15;98209.22;;;23.66;36.70
18569;BME280;14780;48.316;-1.050;2023-03-22T10:48:05;98207.88;;;23.64;36.70
18569;BME280;14780;48.316;-1.050;2023-03-22T10:50:55;98218.00;;;23.63;36.63
18569;BME280;14780;48.316;-1.050;2023-03-22T10:53:46;98211.50;;;23.59;36.57
18569;BME280;14780;48.316;-1.050;2023-03-22T10:56:31;98210.38;;;23.60;36.63
18569;BME280;14780;48.316;-1.050;2023-03-22T10:59:43;98212.84;;;23.62;36.70
18569;BME280;14780;48.316;-1.050;2023-03-22T11:02:30;98200.28;;;23.61;36.63
18569;BME280;14780;48.316;-1.050;2023-03-22T11:05:22;98204.94;;;23.60;36.82
18569;BME280;14780;48.316;-1.050;2023-03-22T11:08:13;98213.63;;;23.62;36.62
18569;BME280;14780;48.316;-1.050;2023-03-22T11:10:58;98207.00;;;23.68;36.48
18569;BME280;14780;48.316;-1.050;2023-03-22T11:19:56;98188.31;;;23.57;36.68
18569;BME280;14780;48.316;-1.050;2023-03-22T11:22:44;98197.59;;;23.56;36.79
18569;BME280;14780;48.316;-1.050;2023-03-22T11:25:43;98191.56;;;23.59;36.83
18569;BME280;14780;48.316;-1.050;2023-03-22T11:28:46;98196.22;;;23.58;36.80
18569;BME280;14780;48.316;-1.050;2023-03-22T11:34:36;98212.59;;;23.58;36.92
18569;BME280;14780;48.316;-1.050;2023-03-22T11:37:21;98210.97;;;23.57;36.79
18569;BME280;14780;48.316;-1.050;2023-03-22T11:40:12;98209.03;;;23.58;36.82
18569;BME280;14780;48.316;-1.050;2023-03-22T11:45:56;98203.59;;;23.58;36.83
18569;BME280;14780;48.316;-1.050;2023-03-22T11:48:42;98215.34;;;23.58;36.79
18569;BME280;14780;48.316;-1.050;2023-03-22T11:51:34;98202.78;;;23.57;36.83
18569;BME280;14780;48.316;-1.050;2023-03-22T11:54:28;98200.06;;;23.57;36.96
18569;BME280;14780;48.316;-1.050;2023-03-22T11:57:23;98207.16;;;23.58;36.98
18569;BME280;14780;48.316;-1.050;2023-03-22T12:00:19;98200.06;;;23.57;36.98
18569;BME280;14780;48.316;-1.050;2023-03-22T12:03:10;98212.09;;;23.56;36.98
18569;BME280;14780;48.316;-1.050;2023-03-22T12:06:01;98196.78;;;23.55;36.90
18569;BME280;14780;48.316;-1.050;2023-03-22T12:08:58;98210.75;;;23.54;36.96
18569;BME280;14780;48.316;-1.050;2023-03-22T12:11:48;98190.53;;;23.55;36.97
18569;BME280;14780;48.316;-1.050;2023-03-22T12:14:50;98182.06;;;23.56;36.88
18569;BME280;14780;48.316;-1.050;2023-03-22T12:20:42;98179.88;;;23.53;36.97
18569;BME280;14780;48.316;-1.050;2023-03-22T12:23:32;98178.78;;;23.54;36.93
18569;BME280;14780;48.316;-1.050;2023-03-22T12:26:25;98159.66;;;23.54;36.90
18569;BME280;14780;48.316;-1.050;2023-03-22T12:29:16;98185.34;;;23.53;36.94
18569;BME280;14780;48.316;-1.050;2023-03-22T12:32:25;98172.81;;;23.52;36.93
18569;BME280;14780;48.316;-1.050;2023-03-22T12:35:19;98171.19;;;23.51;36.86
18569;BME280;14780;48.316;-1.050;2023-03-22T12:38:14;98179.38;;;23.51;36.96
18569;BME280;14780;48.316;-1.050;2023-03-22T12:41:04;98171.47;;;23.50;36.98
18569;BME280;14780;48.316;-1.050;2023-03-22T12:47:00;98165.22;;;23.49;36.88
18569;BME280;14780;48.316;-1.050;2023-03-22T12:50:05;98153.47;;;23.49;36.81
18569;BME280;14780;48.316;-1.050;2023-03-22T12:52:52;98154.56;;;23.48;36.86
18569;BME280;14780;48.316;-1.050;2023-03-22T12:55:43;98153.47;;;23.49;36.90
18569;BME280;14780;48.316;-1.050;2023-03-22T12:58:29;98159.75;;;23.49;36.95
18569;BME280;14780;48.316;-1.050;2023-03-22T13:01:57;98155.09;;;23.50;36.85
18569;BME280;14780;48.316;-1.050;2023-03-22T13:10:40;98140.91;;;23.48;36.93
18569;BME280;14780;48.316;-1.050;2023-03-22T13:18:59;98136.63;;;23.42;37.00
18569;BME280;14780;48.316;-1.050;2023-03-22T13:21:44;98132.78;;;23.43;36.89
18569;BME280;14780;48.316;-1.050;2023-03-22T13:24:32;98122.69;;;23.43;37.00
18569;BME280;14780;48.316;-1.050;2023-03-22T13:27:18;98118.63;;;23.41;37.04
18569;BME280;14780;48.316;-1.050;2023-03-22T13:30:05;98125.72;;;23.42;37.02
18569;BME280;14780;48.316;-1.050;2023-03-22T13:35:58;98108.53;;;23.42;36.88
18569;BME280;14780;48.316;-1.050;2023-03-22T13:39:01;98115.63;;;23.42;36.94
18569;BME280;14780;48.316;-1.050;2023-03-22T13:42:17;98112.88;;;23.42;37.00
18569;BME280;14780;48.316;-1.050;2023-03-22T13:45:08;98107.47;;;23.38;36.98
18569;BME280;14780;48.316;-1.050;2023-03-22T13:48:26;98110.72;;;23.39;36.94
18569;BME280;14780;48.316;-1.050;2023-03-22T13:54:17;98105.03;;;23.36;37.04
18569;BME280;14780;48.316;-1.050;2023-03-22T13:57:04;98100.41;;;23.37;36.96
18569;BME280;14780;48.316;-1.050;2023-03-22T14:00:49;98092.22;;;23.37;36.92
18569;BME280;14780;48.316;-1.050;2023-03-22T14:03:15;98097.16;;;23.35;36.87
18569;BME280;14780;48.316;-1.050;2023-03-22T14:06:22;98103.41;;;23.35;37.01
18569;BME280;14780;48.316;-1.050;2023-03-22T14:09:31;98093.31;;;23.36;37.00
18569;BME280;14780;48.316;-1.050;2023-03-22T14:15:30;98088.31;;;23.42;36.72
18569;BME280;14780;48.316;-1.050;2023-03-22T14:18:23;98085.19;;;23.31;36.89
18569;BME280;14780;48.316;-1.050;2023-03-22T14:21:18;98090.66;;;23.31;37.00
18569;BME280;14780;48.316;-1.050;2023-03-22T14:24:06;98076.47;;;23.29;37.02
18569;BME280;14780;48.316;-1.050;2023-03-22T14:26:56;98081.94;;;23.29;37.01
18569;BME280;14780;48.316;-1.050;2023-03-22T14:29:45;98081.94;;;23.29;36.96
18569;BME280;14780;48.316;-1.050;2023-03-22T14:32:30;98081.94;;;23.29;37.02
18569;BME280;14780;48.316;-1.050;2023-03-22T14:35:27;98081.94;;;23.29;36.95
18569;BME280;14780;48.316;-1.050;2023-03-22T14:38:21;98080.31;;;23.28;36.93
18569;BME280;14780;48.316;-1.050;2023-03-22T14:41:22;98065.56;;;23.29;36.98
18569;BME280;14780;48.316;-1.050;2023-03-22T14:44:11;98078.66;;;23.27;37.05
18569;BME280;14780;48.316;-1.050;2023-03-22T14:47:32;98077.00;;;23.31;36.97
18569;BME280;14780;48.316;-1.050;2023-03-22T14:50:24;98077.06;;;23.26;36.95
18569;BME280;14780;48.316;-1.050;2023-03-22T14:53:10;98083.34;;;23.26;37.00
18569;BME280;14780;48.316;-1.050;2023-03-22T14:55:55;98061.78;;;23.25;37.13
18569;BME280;14780;48.316;-1.050;2023-03-22T14:58:40;98065.34;;;23.25;37.02
18569;BME280;14780;48.316;-1.050;2023-03-22T15:01:34;98069.97;;;23.25;37.01
18569;BME280;14780;48.316;-1.050;2023-03-22T15:04:21;98060.69;;;23.26;37.04
18569;BME280;14780;48.316;-1.050;2023-03-22T15:07:06;98063.94;;;23.28;37.06
18569;BME280;14780;48.316;-1.050;2023-03-22T15:10:08;98062.31;;;23.27;37.05
18569;BME280;14780;48.316;-1.050;2023-03-22T15:12:55;98043.19;;;23.27;37.06
18569;BME280;14780;48.316;-1.050;2023-03-22T15:15:42;98061.50;;;23.26;37.07
18569;BME280;14780;48.316;-1.050;2023-03-22T15:18:32;98050.59;;;23.26;37.04
18569;BME280;14780;48.316;-1.050;2023-03-22T15:21:18;98040.47;;;23.27;36.95
18569;BME280;14780;48.316;-1.050;2023-03-22T15:24:20;98037.44;;;23.28;37.12
18569;BME280;14780;48.316;-1.050;2023-03-22T15:27:11;98028.75;;;23.26;37.09
18569;BME280;14780;48.316;-1.050;2023-03-22T15:29:57;98024.91;;;23.27;37.12
18569;BME280;14780;48.316;-1.050;2023-03-22T15:32:42;98033.38;;;23.26;37.02
18569;BME280;14780;48.316;-1.050;2023-03-22T15:35:27;98038.84;;;23.26;37.11
18569;BME280;14780;48.316;-1.050;2023-03-22T15:38:13;98039.97;;;23.25;36.95
18569;BME280;14780;48.316;-1.050;2023-03-22T15:40:58;98038.06;;;23.25;36.96
18569;BME280;14780;48.316;-1.050;2023-03-22T15:43:44;98026.31;;;23.25;37.02
18569;BME280;14780;48.316;-1.050;2023-03-22T15:46:54;98023.28;;;23.26;37.03
18569;BME280;14780;48.316;-1.050;2023-03-22T15:49:45;98033.69;;;23.24;37.03
18569;BME280;14780;48.316;-1.050;2023-03-22T15:52:31;98033.16;;;23.22;37.03
18569;BME280;14780;48.316;-1.050;2023-03-22T15:55:18;98028.81;;;23.21;37.19
18569;BME280;14780;48.316;-1.050;2023-03-22T15:58:14;98028.03;;;23.21;37.10
18569;BME280;14780;48.316;-1.050;2023-03-22T16:01:27;98021.97;;;23.24;37.14
18569;BME280;14780;48.316;-1.050;2023-03-22T16:04:23;98016.56;;;23.19;37.29
18569;BME280;14780;48.316;-1.050;2023-03-22T16:07:09;98029.09;;;23.20;37.25
18569;BME280;14780;48.316;-1.050;2023-03-22T16:09:55;98027.47;;;23.19;37.20
18569;BME280;14780;48.316;-1.050;2023-03-22T16:12:40;98026.69;;;23.18;37.23
18569;BME280;14780;48.316;-1.050;2023-03-22T16:15:32;98012.22;;;23.18;37.30
18569;BME280;14780;48.316;-1.050;2023-03-22T16:18:19;98028.59;;;23.18;37.19
18569;BME280;14780;48.316;-1.050;2023-03-22T16:21:10;98020.97;;;23.15;37.28
18569;BME280;14780;48.316;-1.050;2023-03-22T16:23:58;98016.34;;;23.15;37.26
18569;BME280;14780;48.316;-1.050;2023-03-22T16:26:43;98019.06;;;23.15;37.32
18569;BME280;14780;48.316;-1.050;2023-03-22T16:29:28;98004.59;;;23.15;37.25